KLEB/LEB METAR and TAF weather

Enter ICAO airport designator
Station Type Date Time Source
KLEB METAR 2019/04/25 15:53 UTC NOAA

KLEB 251553Z 00000KT 10SM OVC031 11/01 A2994 RMK AO2 SLP139 T01060011


Station Type Date Time Source
KLEB Decoded METAR 2019/04/25 15:53 UTC NOAA

LEBANON MUNICIPAL AIRPORT, NH, United States (KLEB) 43-38N 072-18W 171M
Apr 25, 2019 - 11:53 AM EDT / 2019.04.25 1553 UTC
Wind: Calm:0
Visibility: 10 mile(s):0
Sky conditions: overcast
Temperature: 51.1 F (10.6 C)
Dew Point: 34.0 F (1.1 C)
Relative Humidity: 51%
Pressure (altimeter): 29.94 in. Hg (1013 hPa)
ob: KLEB 251553Z 00000KT 10SM OVC031 11/01 A2994 RMK AO2 SLP139 T01060011
cycle: 16

Station Type Date Time Source
KLEB TAF 2019/04/25 12:24 UTC NOAA

TAF KLEB 251120Z 2512/2612 32004KT P6SM BKN035
FM251800 31004KT P6SM SCT040
FM260400 00000KT P6SM BKN100

Example: see airport list